Time;durP1;ratioP1;P1;durP2;ratioP2;P2;SDS_P1;SDS_P2;PMS_P1;PMS_P2;Temp;Humidity;BMP_temperature;BMP_pressure;BME280_temperature;BME280_humidity;BME280_pressure;Samples;Min_cycle;Max_cycle;Signal;HPM_P1;HPM_P2
2023/04/24 00:00:20;;;;;;;1.27;1.10;;;13.20;99.90;;;;;;4980470;28;20176;-86
2023/04/24 00:02:46;;;;;;;2.50;1.20;;;13.30;99.90;;;;;;4980439;28;20527;-84
2023/04/24 00:05:17;;;;;;;2.65;1.20;;;13.30;99.90;;;;;;4979984;28;20299;-86
2023/04/24 00:07:44;;;;;;;4.25;1.30;;;13.30;99.90;;;;;;4980231;28;20674;-84
2023/04/24 00:10:11;;;;;;;1.33;1.20;;;13.30;99.90;;;;;;4997997;28;20183;-84
2023/04/24 00:12:37;;;;;;;1.58;1.13;;;13.30;99.90;;;;;;4980026;28;20175;-84
2023/04/24 00:15:05;;;;;;;3.40;1.10;;;13.40;99.90;;;;;;4980294;28;20225;-84
2023/04/24 00:17:31;;;;;;;3.15;1.25;;;13.40;99.90;;;;;;4980401;28;20175;-82
2023/04/24 00:20:00;;;;;;;1.48;1.30;;;13.40;99.90;;;;;;4979898;28;20176;-84
2023/04/24 00:22:27;;;;;;;3.45;1.23;;;13.40;99.90;;;;;;4980226;28;20187;-85
2023/04/24 00:24:55;;;;;;;3.13;1.13;;;13.40;99.90;;;;;;4979850;28;20218;-85
2023/04/24 00:27:21;;;;;;;1.40;1.00;;;13.40;99.90;;;;;;4980070;28;20606;-83
2023/04/24 00:29:47;;;;;;;2.10;1.20;;;13.30;99.90;;;;;;4980502;28;20234;-83
2023/04/24 00:32:13;;;;;;;1.65;1.10;;;13.30;99.90;;;;;;4979584;28;20232;-84
2023/04/24 00:34:39;;;;;;;2.15;1.25;;;13.20;99.90;;;;;;4979668;28;20238;-85
2023/04/24 00:37:05;;;;;;;1.70;1.10;;;13.20;99.90;;;;;;4979991;28;20172;-84
2023/04/24 00:39:32;;;;;;;1.10;1.00;;;13.10;99.90;;;;;;4979553;28;20184;-84
2023/04/24 00:41:57;;;;;;;3.42;1.20;;;13.10;99.90;;;;;;4996603;28;20164;-84
2023/04/24 00:44:23;;;;;;;1.67;1.10;;;13.10;99.90;;;;;;4997120;28;20657;-83
2023/04/24 00:46:54;;;;;;;1.38;1.00;;;13.10;99.90;;;;;;5438448;22;20304;-82
2023/04/24 00:49:20;;;;;;;1.13;1.02;;;13.00;99.90;;;;;;4975863;28;20181;-84
2023/04/24 00:51:46;;;;;;;1.70;1.40;;;13.00;99.90;;;;;;4977095;28;20180;-83
2023/04/24 00:54:16;;;;;;;2.58;1.25;;;12.90;99.90;;;;;;4959707;28;20181;-83
2023/04/24 00:56:43;;;;;;;1.25;1.15;;;12.80;99.90;;;;;;4977168;28;20188;-84
2023/04/24 00:59:10;;;;;;;1.70;1.10;;;12.80;99.90;;;;;;4959646;28;20208;-83
2023/04/24 01:01:36;;;;;;;2.78;1.20;;;12.70;99.90;;;;;;4976837;28;20185;-85
2023/04/24 01:04:02;;;;;;;2.85;1.13;;;12.60;99.90;;;;;;4977221;28;20172;-83
2023/04/24 01:06:30;;;;;;;1.52;1.20;;;12.60;99.90;;;;;;4975641;28;20563;-84
2023/04/24 01:08:59;;;;;;;1.10;1.00;;;12.50;99.90;;;;;;4959490;28;20207;-83
2023/04/24 01:11:25;;;;;;;1.83;1.20;;;12.50;99.90;;;;;;4959461;28;20684;-86
2023/04/24 01:13:51;;;;;;;1.67;1.10;;;12.50;99.90;;;;;;4975774;28;20180;-83
2023/04/24 01:16:20;;;;;;;1.52;0.95;;;12.50;99.90;;;;;;4959396;28;20176;-84
2023/04/24 01:18:46;;;;;;;3.97;1.20;;;12.40;99.90;;;;;;5010780;28;20193;-83
2023/04/24 01:21:16;;;;;;;1.08;0.90;;;12.40;99.90;;;;;;4998017;28;20182;-84
2023/04/24 01:23:45;;;;;;;0.90;0.80;;;12.50;99.90;;;;;;4998312;28;20566;-84
2023/04/24 01:26:13;;;;;;;4.25;0.90;;;12.50;99.90;;;;;;5015333;28;20578;-84
2023/04/24 01:28:39;;;;;;;3.05;1.00;;;12.40;99.90;;;;;;4997891;28;20225;-86
2023/04/24 01:31:05;;;;;;;1.38;0.85;;;12.50;99.90;;;;;;4997991;28;20182;-83
2023/04/24 01:33:31;;;;;;;3.30;1.25;;;12.50;99.90;;;;;;5015154;28;20203;-81
2023/04/24 01:35:57;;;;;;;1.05;0.80;;;12.50;99.90;;;;;;5015078;28;20187;-84
2023/04/24 01:38:23;;;;;;;2.85;1.00;;;12.50;99.90;;;;;;4997984;28;20238;-83
2023/04/24 01:40:50;;;;;;;0.98;0.68;;;12.40;99.90;;;;;;5015292;28;20175;-84
2023/04/24 01:43:16;;;;;;;1.63;0.90;;;12.50;99.90;;;;;;5015326;28;20616;-82
2023/04/24 01:45:41;;;;;;;0.88;0.85;;;12.50;99.90;;;;;;4997600;28;20234;-84
2023/04/24 01:48:07;;;;;;;2.28;1.20;;;12.50;99.90;;;;;;5014796;28;20665;-83
2023/04/24 01:50:33;;;;;;;0.80;0.80;;;12.40;99.90;;;;;;4997541;28;20183;-84
2023/04/24 01:52:59;;;;;;;3.63;0.80;;;12.40;99.90;;;;;;4997177;28;20258;-85
2023/04/24 01:55:25;;;;;;;1.92;1.00;;;12.30;99.90;;;;;;4996803;28;20189;-83
2023/04/24 01:57:55;;;;;;;1.98;1.05;;;12.30;99.90;;;;;;4997456;28;20521;-84
2023/04/24 02:00:21;;;;;;;2.03;0.98;;;12.30;99.90;;;;;;4997228;28;20187;-82
2023/04/24 02:02:47;;;;;;;2.03;1.00;;;12.30;99.90;;;;;;5014749;28;20217;-83
2023/04/24 02:05:13;;;;;;;1.23;1.10;;;12.20;99.90;;;;;;4997277;28;20218;-84
2023/04/24 02:07:39;;;;;;;2.53;0.90;;;12.20;99.90;;;;;;4997233;28;20270;-85
2023/04/24 02:10:05;;;;;;;2.13;1.00;;;12.10;99.90;;;;;;4997074;28;20187;-83
2023/04/24 02:12:31;;;;;;;3.20;0.90;;;12.10;99.90;;;;;;5014740;28;20210;-83
2023/04/24 02:14:57;;;;;;;1.17;0.80;;;12.10;99.90;;;;;;4997373;28;20183;-83
2023/04/24 02:17:23;;;;;;;1.90;0.93;;;12.10;99.90;;;;;;4996810;28;20277;-83
2023/04/24 02:19:49;;;;;;;1.40;0.90;;;12.10;99.90;;;;;;4996801;28;20274;-85
2023/04/24 02:22:15;;;;;;;1.13;0.90;;;12.00;99.90;;;;;;4996841;28;20182;-86
2023/04/24 02:24:41;;;;;;;2.17;1.05;;;12.10;99.90;;;;;;4996489;28;20302;-83
2023/04/24 02:27:07;;;;;;;2.95;1.00;;;12.00;99.90;;;;;;5014599;28;20195;-86
2023/04/24 02:29:33;;;;;;;1.60;0.90;;;11.90;99.90;;;;;;4996871;28;20206;-81
2023/04/24 02:31:58;;;;;;;1.67;0.90;;;11.90;99.90;;;;;;4996548;28;20194;-87
2023/04/24 02:34:24;;;;;;;2.03;1.17;;;11.90;99.90;;;;;;5014240;28;20598;-84
2023/04/24 02:36:50;;;;;;;1.20;0.98;;;11.90;99.90;;;;;;4996702;28;20187;-82
2023/04/24 02:39:16;;;;;;;0.90;0.85;;;11.90;99.90;;;;;;4996544;28;20183;-84
2023/04/24 02:41:43;;;;;;;2.72;1.10;;;11.80;99.90;;;;;;5014170;28;20209;-84
2023/04/24 02:44:09;;;;;;;1.70;0.80;;;11.80;99.90;;;;;;4996532;28;20187;-84
2023/04/24 02:46:35;;;;;;;1.90;1.20;;;11.80;99.90;;;;;;4996223;28;20179;-83
2023/04/24 02:49:01;;;;;;;2.25;1.08;;;11.70;99.90;;;;;;5013758;28;20651;-83
2023/04/24 02:51:26;;;;;;;1.80;1.10;;;11.70;99.90;;;;;;4996584;28;20171;-83
2023/04/24 02:53:52;;;;;;;1.65;1.00;;;11.60;99.90;;;;;;4996193;28;20179;-83
2023/04/24 02:56:18;;;;;;;3.30;1.00;;;11.60;99.90;;;;;;5013920;28;20171;-83
2023/04/24 02:58:44;;;;;;;2.33;1.00;;;11.60;99.90;;;;;;5014008;28;20203;-83
2023/04/24 03:01:09;;;;;;;2.47;1.05;;;11.60;99.90;;;;;;4996066;28;20515;-83
2023/04/24 03:03:36;;;;;;;4.60;1.10;;;11.50;99.90;;;;;;4995919;28;20233;-81
2023/04/24 03:06:02;;;;;;;1.58;1.10;;;11.50;99.90;;;;;;4995787;28;20218;-82
2023/04/24 03:08:27;;;;;;;1.17;1.08;;;11.50;99.90;;;;;;5013713;28;20496;-83
2023/04/24 03:10:53;;;;;;;1.70;1.00;;;11.50;99.90;;;;;;4996145;28;20187;-83
2023/04/24 03:13:19;;;;;;;2.00;1.00;;;11.50;99.90;;;;;;4996133;28;20571;-84
2023/04/24 03:15:46;;;;;;;1.40;0.95;;;11.40;99.90;;;;;;5013691;28;20499;-84
2023/04/24 03:18:12;;;;;;;1.63;1.00;;;11.40;99.90;;;;;;5013181;28;20617;-83
2023/04/24 03:20:37;;;;;;;1.63;0.90;;;11.40;99.90;;;;;;4995829;28;20183;-82
2023/04/24 03:23:04;;;;;;;1.52;1.00;;;11.30;99.90;;;;;;4995993;28;20182;-82
2023/04/24 03:25:29;;;;;;;4.28;1.30;;;11.30;99.90;;;;;;4995855;28;20219;-84
2023/04/24 03:27:55;;;;;;;2.03;1.10;;;11.20;99.90;;;;;;5013885;28;20574;-83
2023/04/24 03:30:21;;;;;;;1.52;1.10;;;11.20;99.90;;;;;;4995987;28;20190;-82
2023/04/24 03:32:47;;;;;;;1.00;0.80;;;11.10;99.90;;;;;;5013405;28;20617;-83
2023/04/24 03:35:12;;;;;;;0.93;0.80;;;11.10;99.90;;;;;;4995897;28;20555;-83
2023/04/24 03:37:38;;;;;;;1.88;0.73;;;11.00;99.90;;;;;;5013638;28;20261;-83
2023/04/24 03:40:05;;;;;;;4.18;1.15;;;11.00;99.90;;;;;;4996031;28;20392;-85
2023/04/24 03:42:31;;;;;;;1.00;0.90;;;11.10;99.90;;;;;;5013595;28;20156;-83
2023/04/24 03:44:57;;;;;;;2.70;0.90;;;11.10;99.90;;;;;;5013325;28;20524;-83
2023/04/24 03:47:22;;;;;;;4.22;1.02;;;11.00;99.90;;;;;;5013019;28;20234;-82
2023/04/24 03:49:48;;;;;;;2.25;0.90;;;11.00;99.90;;;;;;5013410;28;20649;-83
2023/04/24 03:52:14;;;;;;;1.55;1.02;;;11.00;99.90;;;;;;4995893;28;20260;-87
2023/04/24 03:54:40;;;;;;;2.92;1.08;;;11.00;99.90;;;;;;4996214;28;20194;-84
2023/04/24 03:57:05;;;;;;;1.85;1.00;;;11.00;99.90;;;;;;5013877;28;20648;-85
2023/04/24 03:59:31;;;;;;;1.85;0.93;;;10.90;99.90;;;;;;4992508;28;20180;-86
2023/04/24 04:01:57;;;;;;;1.23;1.00;;;10.90;99.90;;;;;;4994474;28;20207;-86
2023/04/24 04:04:22;;;;;;;3.22;1.10;;;10.90;99.90;;;;;;4993937;28;20516;-87
2023/04/24 04:06:48;;;;;;;1.70;0.90;;;10.90;99.90;;;;;;4994339;28;20592;-87
2023/04/24 04:09:14;;;;;;;3.75;0.80;;;10.90;99.90;;;;;;4977064;28;20536;-88
2023/04/24 04:11:42;;;;;;;5.43;0.80;;;10.90;99.90;;;;;;4994415;28;20540;-86
2023/04/24 04:14:08;;;;;;;1.48;0.70;;;10.90;99.90;;;;;;4994239;28;20167;-87
2023/04/24 04:16:36;;;;;;;1.63;1.10;;;11.00;99.90;;;;;;4993137;28;20175;-83
2023/04/24 04:19:02;;;;;;;0.85;0.73;;;10.90;99.90;;;;;;4976259;28;20192;-86
2023/04/24 04:21:28;;;;;;;2.00;0.80;;;10.90;99.90;;;;;;4960982;28;20623;-87
2023/04/24 04:23:54;;;;;;;3.00;0.70;;;10.80;99.90;;;;;;4961115;28;20627;-88
2023/04/24 04:26:21;;;;;;;3.45;1.00;;;10.80;99.90;;;;;;4978414;28;20204;-88
2023/04/24 04:28:47;;;;;;;2.22;0.80;;;10.80;99.90;;;;;;4978243;28;20168;-87
2023/04/24 04:31:13;;;;;;;3.60;0.60;;;10.80;99.90;;;;;;4960697;28;20184;-88
2023/04/24 04:33:39;;;;;;;1.23;0.57;;;10.80;99.90;;;;;;4960814;28;20173;-87
2023/04/24 04:36:05;;;;;;;2.60;0.70;;;10.80;99.90;;;;;;4960924;28;20187;-87
2023/04/24 04:38:31;;;;;;;1.40;0.75;;;10.80;99.90;;;;;;4978276;28;20173;-86
2023/04/24 04:40:59;;;;;;;0.73;0.70;;;10.90;99.90;;;;;;4960785;28;20191;-87
2023/04/24 04:43:25;;;;;;;1.15;0.65;;;10.90;99.90;;;;;;4977983;28;20161;-87
2023/04/24 04:45:51;;;;;;;0.70;0.70;;;10.80;99.90;;;;;;4977489;28;20647;-83
2023/04/24 04:48:18;;;;;;;2.10;0.70;;;10.80;99.90;;;;;;4973015;28;20259;-82
2023/04/24 04:50:45;;;;;;;2.13;1.00;;;10.80;99.90;;;;;;4995156;28;20681;-85
2023/04/24 04:53:11;;;;;;;2.08;0.93;;;10.80;99.90;;;;;;4996603;28;20621;-83
2023/04/24 04:55:37;;;;;;;2.90;1.00;;;10.80;99.90;;;;;;4995229;28;20184;-82
2023/04/24 04:58:03;;;;;;;1.05;0.80;;;10.70;99.90;;;;;;4979138;28;20561;-82
2023/04/24 05:00:34;;;;;;;2.63;1.20;;;10.70;99.90;;;;;;4978933;28;20179;-82
2023/04/24 05:03:00;;;;;;;2.70;1.10;;;10.70;99.90;;;;;;4978566;28;20172;-83
2023/04/24 05:05:25;;;;;;;1.85;0.80;;;10.70;99.90;;;;;;4996237;28;20556;-83
2023/04/24 05:07:51;;;;;;;1.10;0.88;;;10.60;99.90;;;;;;4996356;28;20176;-83
2023/04/24 05:10:17;;;;;;;1.58;1.02;;;10.60;99.90;;;;;;4994884;28;20191;-83
2023/04/24 05:12:43;;;;;;;4.18;0.90;;;10.60;99.90;;;;;;4994750;28;20187;-82
2023/04/24 05:15:09;;;;;;;3.55;1.08;;;10.70;99.90;;;;;;4996014;28;20180;-82
2023/04/24 05:17:40;;;;;;;5.00;1.10;;;10.70;99.90;;;;;;4993659;28;20187;-82
2023/04/24 05:20:07;;;;;;;1.60;0.73;;;10.80;99.90;;;;;;4997355;28;20266;-82
2023/04/24 05:22:33;;;;;;;2.80;0.98;;;10.90;99.90;;;;;;4997822;28;20187;-85
2023/04/24 05:24:59;;;;;;;5.32;0.90;;;10.90;99.90;;;;;;4997527;28;20219;-81
2023/04/24 05:27:25;;;;;;;1.10;0.80;;;10.90;99.90;;;;;;4997592;28;20175;-83
2023/04/24 05:29:51;;;;;;;0.70;0.70;;;11.00;99.90;;;;;;4997512;28;20674;-82
2023/04/24 05:32:17;;;;;;;2.85;1.00;;;11.00;99.90;;;;;;4997584;28;20262;-82
2023/04/24 05:34:43;;;;;;;2.10;1.10;;;11.10;99.90;;;;;;4997708;28;20210;-81
2023/04/24 05:37:09;;;;;;;2.15;0.80;;;11.10;99.90;;;;;;4997584;28;20190;-82
2023/04/24 05:39:36;;;;;;;2.75;0.90;;;11.10;99.90;;;;;;5015045;28;20167;-82
2023/04/24 05:42:05;;;;;;;1.88;1.00;;;11.10;99.90;;;;;;5013716;28;20625;-82
2023/04/24 05:44:31;;;;;;;0.82;0.80;;;11.20;99.90;;;;;;4997138;28;20514;-82
2023/04/24 05:46:56;;;;;;;2.00;0.95;;;11.20;99.90;;;;;;4994223;28;20243;-83
2023/04/24 05:49:23;;;;;;;2.33;1.00;;;11.30;99.90;;;;;;4977356;28;20184;-83
2023/04/24 05:51:48;;;;;;;1.40;0.90;;;11.30;99.90;;;;;;4995219;28;20184;-83
2023/04/24 05:54:14;;;;;;;2.53;1.17;;;11.30;99.90;;;;;;4995159;28;20247;-87
2023/04/24 05:56:40;;;;;;;5.43;1.10;;;11.30;99.90;;;;;;4993641;28;20224;-82
2023/04/24 05:59:07;;;;;;;4.25;1.08;;;11.40;99.90;;;;;;4977539;28;20293;-83
2023/04/24 06:01:33;;;;;;;1.63;0.90;;;11.40;99.90;;;;;;4977484;28;20279;-82
2023/04/24 06:03:59;;;;;;;1.60;0.93;;;11.40;99.90;;;;;;4994859;28;20207;-83
2023/04/24 06:06:25;;;;;;;2.53;0.82;;;11.50;99.90;;;;;;4977482;28;20266;-88
2023/04/24 06:08:51;;;;;;;5.32;1.00;;;11.60;99.90;;;;;;4995074;28;20504;-84
2023/04/24 06:11:17;;;;;;;3.03;1.13;;;11.60;99.90;;;;;;4995099;28;20183;-83
2023/04/24 06:13:43;;;;;;;1.00;0.80;;;11.80;99.90;;;;;;4994863;28;20179;-82
2023/04/24 06:16:09;;;;;;;1.52;1.10;;;11.80;99.90;;;;;;4994810;28;20176;-83
2023/04/24 06:18:34;;;;;;;1.13;0.77;;;11.80;99.90;;;;;;4993281;28;20214;-87
2023/04/24 06:21:00;;;;;;;1.40;0.80;;;11.90;99.90;;;;;;5014521;28;20229;-83
2023/04/24 06:23:26;;;;;;;1.20;0.90;;;11.90;99.90;;;;;;4996853;28;20179;-82
2023/04/24 06:25:52;;;;;;;5.60;1.00;;;11.90;99.90;;;;;;4996877;28;20262;-84
2023/04/24 06:28:17;;;;;;;3.65;0.82;;;12.00;99.90;;;;;;4996754;28;20245;-84
2023/04/24 06:30:43;;;;;;;1.13;0.80;;;11.90;99.90;;;;;;4996471;28;20206;-85
2023/04/24 06:33:10;;;;;;;0.82;0.80;;;11.90;99.90;;;;;;5013943;28;20214;-86
2023/04/24 06:35:36;;;;;;;1.33;0.75;;;11.90;99.90;;;;;;4996711;28;20183;-85
2023/04/24 06:38:02;;;;;;;2.40;0.90;;;11.90;99.90;;;;;;4996527;28;20283;-84
2023/04/24 06:40:27;;;;;;;7.43;1.13;;;11.90;99.90;;;;;;5013521;28;20565;-84
2023/04/24 06:42:53;;;;;;;1.90;0.90;;;12.00;99.90;;;;;;5013926;28;20210;-83
2023/04/24 06:45:19;;;;;;;1.77;0.80;;;12.00;99.90;;;;;;5013866;28;20264;-86
2023/04/24 06:47:45;;;;;;;1.90;0.93;;;12.10;99.90;;;;;;5003968;28;20223;-86
2023/04/24 06:50:11;;;;;;;1.75;0.93;;;12.10;99.90;;;;;;4976755;28;20497;-84
2023/04/24 06:52:37;;;;;;;2.15;0.70;;;12.20;99.90;;;;;;4994268;28;20195;-86
2023/04/24 06:55:04;;;;;;;2.47;1.10;;;12.20;99.90;;;;;;4993097;28;20223;-84
2023/04/24 06:57:30;;;;;;;1.35;0.90;;;12.30;99.90;;;;;;4976606;28;20188;-89
2023/04/24 06:59:56;;;;;;;1.38;0.90;;;12.30;99.90;;;;;;4994207;28;20176;-84
2023/04/24 07:02:22;;;;;;;1.13;0.80;;;12.40;99.90;;;;;;4976352;28;20184;-83
2023/04/24 07:04:48;;;;;;;4.72;0.90;;;12.30;99.90;;;;;;4976360;28;20215;-85
2023/04/24 07:07:14;;;;;;;3.05;0.95;;;12.30;99.90;;;;;;4992998;28;20214;-84
2023/04/24 07:09:44;;;;;;;2.75;1.00;;;12.40;99.90;;;;;;4976700;28;20191;-83
2023/04/24 07:12:13;;;;;;;3.42;0.82;;;12.40;99.90;;;;;;4976566;28;20518;-84
2023/04/24 07:14:39;;;;;;;1.63;1.10;;;12.40;99.90;;;;;;4976568;28;20187;-85
2023/04/24 07:17:06;;;;;;;1.83;0.90;;;12.50;99.90;;;;;;4976620;28;20180;-85
2023/04/24 07:19:35;;;;;;;1.55;0.70;;;12.50;99.90;;;;;;4993955;28;20226;-85
2023/04/24 07:22:03;;;;;;;1.35;0.55;;;12.50;99.90;;;;;;4992847;28;20619;-86
2023/04/24 07:24:28;;;;;;;3.65;0.77;;;12.70;99.90;;;;;;4994123;28;20260;-84
2023/04/24 07:26:55;;;;;;;1.85;0.95;;;12.80;99.90;;;;;;4976839;28;20271;-87
2023/04/24 07:29:21;;;;;;;2.50;1.02;;;12.90;99.90;;;;;;4976667;28;20241;-84
2023/04/24 07:31:47;;;;;;;1.65;0.82;;;13.00;99.90;;;;;;4995786;28;20614;-82
2023/04/24 07:34:12;;;;;;;1.00;0.70;;;13.10;99.90;;;;;;4995984;28;20182;-85
2023/04/24 07:36:38;;;;;;;1.17;0.73;;;13.00;99.90;;;;;;5013331;28;20172;-84
2023/04/24 07:39:05;;;;;;;2.53;0.85;;;13.10;99.90;;;;;;5013544;28;20522;-87
2023/04/24 07:41:31;;;;;;;1.90;0.80;;;13.10;99.90;;;;;;5012178;28;20928;-84
2023/04/24 07:43:58;;;;;;;1.80;1.00;;;13.30;99.90;;;;;;5013690;28;20225;-83
2023/04/24 07:46:24;;;;;;;3.03;0.73;;;13.40;99.90;;;;;;4995741;28;20211;-85
2023/04/24 07:48:50;;;;;;;2.38;0.80;;;13.40;99.90;;;;;;4973323;28;20236;-84
2023/04/24 07:51:16;;;;;;;1.20;0.70;;;13.00;99.90;;;;;;4972911;28;20189;-84
2023/04/24 07:53:43;;;;;;;1.00;0.63;;;12.80;99.90;;;;;;4975563;28;20180;-84
2023/04/24 07:56:09;;;;;;;0.50;0.50;;;12.60;99.90;;;;;;4977868;28;20299;-83
2023/04/24 07:58:34;;;;;;;1.48;0.70;;;12.60;99.90;;;;;;4976996;28;20587;-86
2023/04/24 08:01:00;;;;;;;2.25;0.80;;;12.50;99.90;;;;;;4976638;28;20566;-84
2023/04/24 08:03:26;;;;;;;1.75;0.85;;;12.50;99.90;;;;;;4977494;28;20177;-83
2023/04/24 08:05:52;;;;;;;2.17;0.82;;;12.40;99.90;;;;;;4977752;28;20545;-84
2023/04/24 08:08:20;;;;;;;1.55;0.90;;;12.30;99.90;;;;;;4976566;28;20191;-84
2023/04/24 08:10:45;;;;;;;1.25;1.10;;;12.10;99.90;;;;;;4977161;28;20550;-86
2023/04/24 08:13:13;;;;;;;1.17;1.00;;;12.00;99.90;;;;;;4977958;28;20172;-86
2023/04/24 08:15:39;;;;;;;1.27;1.17;;;12.00;99.90;;;;;;4976753;28;20200;-85
2023/04/24 08:18:05;;;;;;;2.45;1.30;;;11.90;99.90;;;;;;4977429;28;20551;-85
2023/04/24 08:20:31;;;;;;;1.23;1.13;;;11.70;99.90;;;;;;4976650;28;20630;-86
2023/04/24 08:22:58;;;;;;;3.33;1.33;;;11.60;99.90;;;;;;4977406;28;20177;-86
2023/04/24 08:25:24;;;;;;;1.65;1.20;;;11.60;99.90;;;;;;4977548;28;20224;-85
2023/04/24 08:27:51;;;;;;;1.73;1.20;;;11.60;99.90;;;;;;4978023;28;20247;-85
2023/04/24 08:30:17;;;;;;;2.25;1.23;;;11.60;99.90;;;;;;4977196;28;20180;-86
2023/04/24 08:32:43;;;;;;;3.88;1.50;;;11.70;99.90;;;;;;4976757;28;20188;-88
2023/04/24 08:35:09;;;;;;;1.83;1.30;;;11.80;99.90;;;;;;4976368;28;20679;-86
2023/04/24 08:37:35;;;;;;;2.60;1.70;;;11.80;99.90;;;;;;4976619;28;20211;-84
2023/04/24 08:40:06;;;;;;;1.55;1.38;;;11.90;99.90;;;;;;4976664;28;20826;-83
2023/04/24 08:42:34;;;;;;;2.15;1.60;;;12.00;99.90;;;;;;4976611;28;20173;-84
2023/04/24 08:44:59;;;;;;;1.65;1.45;;;12.10;99.90;;;;;;4977771;28;20255;-85
2023/04/24 08:47:27;;;;;;;2.47;1.50;;;12.20;99.90;;;;;;4976304;28;20230;-85
2023/04/24 08:49:55;;;;;;;1.60;1.50;;;12.20;99.90;;;;;;4976294;28;20210;-89
2023/04/24 08:52:21;;;;;;;3.65;1.60;;;12.30;99.90;;;;;;4977603;28;20616;-87
2023/04/24 08:54:48;;;;;;;1.83;1.60;;;12.40;99.90;;;;;;4976602;28;20177;-87
2023/04/24 08:57:14;;;;;;;3.50;1.70;;;12.60;99.90;;;;;;4977583;28;20612;-87
2023/04/24 08:59:40;;;;;;;3.13;1.77;;;12.80;99.90;;;;;;4976136;28;20273;-86
2023/04/24 09:02:11;;;;;;;2.17;1.70;;;13.00;99.90;;;;;;4977432;28;20651;-85
2023/04/24 09:04:37;;;;;;;4.20;1.80;;;13.10;99.90;;;;;;4975398;28;20609;-85
2023/04/24 09:07:05;;;;;;;3.95;2.20;;;13.30;99.90;;;;;;4976164;28;20244;-87
2023/04/24 09:09:33;;;;;;;2.50;2.00;;;13.60;99.90;;;;;;4977245;28;20172;-85
2023/04/24 09:12:00;;;;;;;2.60;2.28;;;13.90;99.90;;;;;;4975989;28;20185;-84
2023/04/24 09:14:27;;;;;;;3.70;2.40;;;14.10;99.90;;;;;;4976012;28;20179;-85
2023/04/24 09:16:53;;;;;;;3.72;2.35;;;14.30;99.90;;;;;;4977179;28;20679;-85
2023/04/24 09:19:21;;;;;;;2.85;2.40;;;14.40;99.90;;;;;;4976344;28;20188;-85
2023/04/24 09:21:47;;;;;;;3.50;2.83;;;14.60;99.90;;;;;;4976916;28;20259;-86
2023/04/24 09:24:20;;;;;;;3.00;2.70;;;14.90;99.90;;;;;;4977210;28;20179;-85
2023/04/24 09:26:46;;;;;;;5.03;2.75;;;15.20;99.90;;;;;;4975726;28;20218;-85
2023/04/24 09:29:16;;;;;;;2.90;2.47;;;15.30;99.90;;;;;;4976811;28;20172;-86
2023/04/24 09:31:43;;;;;;;4.13;3.17;;;15.20;99.90;;;;;;4975364;28;20208;-84
2023/04/24 09:34:09;;;;;;;5.00;3.08;;;15.00;99.90;;;;;;4976567;28;20223;-86
2023/04/24 09:36:37;;;;;;;4.78;3.20;;;15.10;99.90;;;;;;4975629;28;20522;-85
2023/04/24 09:39:06;;;;;;;5.18;3.72;;;15.20;99.90;;;;;;4976686;28;20188;-85
2023/04/24 09:41:32;;;;;;;3.97;3.45;;;15.30;99.90;;;;;;4976465;28;20172;-85
2023/04/24 09:44:14;;;;;;;7.90;4.30;;;15.30;99.90;;;;;;4975201;28;20273;-85
2023/04/24 09:46:42;;;;;;;3.35;2.97;;;15.40;99.90;;;;;;4977277;28;20671;-86
2023/04/24 09:49:23;;;;;;;3.75;3.13;;;15.50;99.90;;;;;;5014967;28;20175;-82
2023/04/24 09:51:49;;;;;;;4.85;2.85;;;15.50;99.90;;;;;;5015249;28;20167;-83
2023/04/24 09:54:20;;;;;;;3.67;3.00;;;15.30;99.90;;;;;;4997654;28;20183;-83
2023/04/24 09:56:48;;;;;;;4.13;2.83;;;14.70;99.90;;;;;;5014923;28;20159;-82
2023/04/24 09:59:15;;;;;;;3.67;3.05;;;14.40;99.90;;;;;;4997441;28;20186;-84
2023/04/24 10:01:42;;;;;;;5.28;3.35;;;14.60;99.90;;;;;;5014788;28;20183;-85
2023/04/24 10:04:25;;;;;;;3.17;2.88;;;14.60;99.90;;;;;;4997246;28;20516;-86
2023/04/24 10:06:53;;;;;;;3.70;2.70;;;14.60;99.90;;;;;;5013916;28;20593;-82
2023/04/24 10:09:21;;;;;;;3.60;2.70;;;14.30;99.90;;;;;;4997263;28;20554;-84
2023/04/24 10:11:49;;;;;;;2.55;2.35;;;14.10;99.90;;;;;;5014626;28;20183;-84
2023/04/24 10:14:20;;;;;;;3.45;2.75;;;13.90;99.90;;;;;;4996662;28;20254;-82
2023/04/24 10:16:47;;;;;;;3.45;2.53;;;13.90;99.90;;;;;;5013173;28;20564;-82
2023/04/24 10:19:14;;;;;;;4.22;2.38;;;14.00;99.90;;;;;;4996400;28;20524;-83
2023/04/24 10:21:42;;;;;;;3.00;2.17;;;14.10;99.90;;;;;;5014631;28;20203;-82
2023/04/24 10:24:09;;;;;;;5.53;2.22;;;14.00;99.90;;;;;;5014974;28;20207;-87
2023/04/24 10:26:37;;;;;;;4.60;1.85;;;14.00;99.90;;;;;;5014717;28;20214;-85
2023/04/24 10:29:09;;;;;;;2.20;2.00;;;13.80;99.90;;;;;;4996947;28;20252;-86
2023/04/24 10:31:36;;;;;;;2.38;1.92;;;14.00;99.90;;;;;;4996994;28;20664;-85
2023/04/24 10:34:03;;;;;;;2.42;1.90;;;14.10;99.90;;;;;;4996822;28;20179;-85
2023/04/24 10:36:32;;;;;;;2.03;1.80;;;14.00;99.90;;;;;;4997075;28;20175;-86
2023/04/24 10:39:00;;;;;;;2.63;2.13;;;13.90;99.90;;;;;;5014588;28;20183;-87
2023/04/24 10:41:27;;;;;;;2.50;1.67;;;13.70;99.90;;;;;;4997094;28;20176;-87
2023/04/24 10:44:22;;;;;;;5.10;2.22;;;13.60;99.90;;;;;;5014613;28;20163;-86
2023/04/24 10:46:55;;;;;;;3.95;2.08;;;13.90;99.90;;;;;;5012562;28;20219;-87
2023/04/24 10:49:32;;;;;;;2.22;1.80;;;14.00;99.90;;;;;;4990890;28;20191;-87
2023/04/24 10:52:05;;;;;;;2.35;2.05;;;14.00;99.90;;;;;;4994560;28;20160;-84
2023/04/24 10:54:45;;;;;;;2.40;1.90;;;13.90;99.90;;;;;;4977115;28;20261;-86
2023/04/24 10:57:21;;;;;;;3.92;1.77;;;14.00;99.90;;;;;;4977085;28;20860;-88
2023/04/24 11:00:09;;;;;;;3.35;1.90;;;14.00;99.90;;;;;;4976948;28;20498;-79
2023/04/24 11:02:39;;;;;;;2.65;2.10;;;14.10;99.90;;;;;;4986326;28;20653;-85
2023/04/24 11:05:06;;;;;;;4.88;1.83;;;14.10;99.90;;;;;;4996148;28;20652;-85
2023/04/24 11:08:10;;;;;;;1.77;1.67;;;14.00;99.90;;;;;;4996458;28;20202;-86
2023/04/24 11:10:43;;;;;;;2.58;1.90;;;13.70;99.90;;;;;;4996388;28;20645;-87
2023/04/24 11:13:16;;;;;;;2.30;1.83;;;13.60;99.90;;;;;;5012862;28;20202;-85
2023/04/24 11:15:42;;;;;;;2.58;1.90;;;13.40;99.90;;;;;;4979060;28;20192;-83
2023/04/24 11:18:16;;;;;;;2.75;1.80;;;13.30;99.90;;;;;;4980983;28;20227;-86
2023/04/24 11:20:46;;;;;;;2.17;1.70;;;13.40;99.90;;;;;;4990381;28;20263;-83
2023/04/24 11:23:14;;;;;;;3.38;1.73;;;13.40;99.90;;;;;;4976751;28;20182;-83
2023/04/24 11:25:41;;;;;;;3.20;1.75;;;13.60;99.90;;;;;;4976241;28;20215;-83
2023/04/24 11:28:07;;;;;;;1.98;1.60;;;13.80;99.90;;;;;;4979723;28;20583;-82
2023/04/24 11:30:36;;;;;;;1.70;1.35;;;13.90;99.90;;;;;;4979919;28;20271;-87
2023/04/24 11:33:05;;;;;;;1.70;1.40;;;14.00;99.90;;;;;;4993255;28;20233;-81
2023/04/24 11:35:37;;;;;;;3.78;1.90;;;14.00;99.90;;;;;;5016894;28;20171;-80
2023/04/24 11:38:04;;;;;;;3.78;1.95;;;13.90;99.90;;;;;;5017271;28;20658;-86
2023/04/24 11:40:30;;;;;;;2.97;1.70;;;13.80;99.90;;;;;;5017150;28;20183;-82
2023/04/24 11:42:55;;;;;;;2.13;1.52;;;13.80;99.90;;;;;;4999501;28;20183;-83
2023/04/24 11:45:27;;;;;;;2.35;1.50;;;13.90;99.90;;;;;;4999224;28;20202;-85
2023/04/24 11:47:53;;;;;;;1.60;1.40;;;14.10;99.90;;;;;;5016862;28;20755;-84
2023/04/24 11:50:21;;;;;;;2.47;1.38;;;14.10;99.90;;;;;;4998190;28;20171;-80
2023/04/24 11:52:49;;;;;;;1.65;1.20;;;14.00;99.90;;;;;;4999067;28;20203;-80
2023/04/24 11:55:15;;;;;;;3.30;1.20;;;14.10;99.90;;;;;;4999041;28;20549;-81
2023/04/24 11:57:53;;;;;;;1.45;0.82;;;14.30;99.90;;;;;;5016975;28;20167;-79
2023/04/24 12:00:30;;;;;;;1.83;1.13;;;14.30;99.90;;;;;;4999348;28;20190;-82
2023/04/24 12:03:07;;;;;;;1.38;1.15;;;14.20;99.90;;;;;;4999717;28;20228;-85
2023/04/24 12:05:34;;;;;;;1.13;1.00;;;14.10;99.90;;;;;;4999444;28;20298;-84
2023/04/24 12:08:00;;;;;;;2.38;1.02;;;14.00;99.90;;;;;;5017133;28;20163;-86
2023/04/24 12:10:29;;;;;;;1.52;1.10;;;14.00;99.90;;;;;;5017116;28;20551;-83
2023/04/24 12:12:56;;;;;;;1.73;1.13;;;13.90;99.90;;;;;;4999374;28;20696;-85
2023/04/24 12:15:23;;;;;;;2.17;1.00;;;13.60;99.90;;;;;;4999517;28;20486;-82
2023/04/24 12:17:52;;;;;;;2.25;0.93;;;13.50;99.90;;;;;;5015650;28;20176;-85
2023/04/24 12:20:32;;;;;;;1.27;1.10;;;13.50;99.90;;;;;;5016596;28;20242;-82
2023/04/24 12:23:00;;;;;;;1.15;1.02;;;13.50;99.90;;;;;;5016926;28;20171;-84
2023/04/24 12:25:31;;;;;;;2.60;1.10;;;13.60;99.90;;;;;;4979086;28;20720;-87
2023/04/24 12:28:05;;;;;;;2.03;0.75;;;13.70;99.90;;;;;;4996146;28;20303;-84
2023/04/24 12:30:34;;;;;;;1.50;1.00;;;13.80;99.90;;;;;;4979148;28;20269;-85
2023/04/24 12:33:00;;;;;;;1.48;1.10;;;13.90;99.90;;;;;;4996927;28;20172;-80
2023/04/24 12:35:29;;;;;;;1.30;0.98;;;14.00;99.90;;;;;;5000126;28;20171;-84
2023/04/24 12:37:55;;;;;;;1.27;1.17;;;14.20;99.90;;;;;;4997963;28;20175;-83
2023/04/24 12:40:22;;;;;;;1.10;0.95;;;14.10;99.90;;;;;;4998747;28;20175;-87
2023/04/24 12:42:51;;;;;;;2.97;1.08;;;14.00;99.90;;;;;;5016272;28;20210;-87
2023/04/24 12:45:18;;;;;;;1.17;1.08;;;13.90;99.90;;;;;;5016154;28;20290;-84
2023/04/24 12:47:46;;;;;;;1.83;1.10;;;13.70;99.90;;;;;;5014946;28;20239;-80